createdAt,value
2022-12-17T00:00:28.145Z,23.95
2022-12-17T00:03:20.406Z,22.33
2022-12-17T00:06:05.740Z,24.77
2022-12-17T00:08:50.972Z,22.92
2022-12-17T00:11:36.319Z,23.67
2022-12-17T00:14:21.626Z,24.55
2022-12-17T00:17:07.098Z,24.48
2022-12-17T00:19:52.370Z,28.70
2022-12-17T00:22:41.929Z,24.17
2022-12-17T00:25:27.437Z,25.83
2022-12-17T00:28:26.733Z,28.65
2022-12-17T00:31:11.826Z,25.27
2022-12-17T00:33:57.273Z,25.35
2022-12-17T00:36:42.779Z,24.92
2022-12-17T00:39:28.300Z,24.35
2022-12-17T00:42:16.248Z,26.15
2022-12-17T00:45:01.593Z,25.33
2022-12-17T00:47:47.183Z,25.95
2022-12-17T00:50:32.621Z,27.17
2022-12-17T00:53:17.979Z,24.98
2022-12-17T00:56:03.315Z,25.67
2022-12-17T00:58:48.585Z,24.98
2022-12-17T01:01:34.341Z,25.35
2022-12-17T01:04:19.626Z,27.23
2022-12-17T01:07:04.858Z,26.35
2022-12-17T01:09:50.082Z,22.88
2022-12-17T01:12:35.330Z,24.30
2022-12-17T01:15:20.614Z,24.48
2022-12-17T01:18:06.055Z,24.98
2022-12-17T01:20:51.380Z,24.35
2022-12-17T01:23:37.905Z,25.00
2022-12-17T01:26:23.541Z,22.85
2022-12-17T01:29:08.861Z,23.00
2022-12-17T01:31:54.230Z,23.42
2022-12-17T01:37:24.288Z,23.05
2022-12-17T01:40:13.305Z,24.95
2022-12-17T01:43:09.036Z,21.58
2022-12-17T01:46:01.674Z,22.98
2022-12-17T01:48:54.630Z,21.58
2022-12-17T01:51:39.981Z,22.15
2022-12-17T01:54:25.294Z,25.50
2022-12-17T01:57:11.854Z,21.67
2022-12-17T02:00:04.721Z,20.45
2022-12-17T02:02:51.166Z,18.60
2022-12-17T02:05:38.383Z,20.00
2022-12-17T02:08:40.037Z,17.58
2022-12-17T02:11:35.667Z,19.60
2022-12-17T02:14:46.170Z,19.85
2022-12-17T02:17:36.842Z,19.88
2022-12-17T02:20:43.717Z,19.20
2022-12-17T02:23:45.054Z,21.00
2022-12-17T02:27:01.422Z,23.42
2022-12-17T02:29:49.716Z,20.73
2022-12-17T02:32:35.364Z,20.33
2022-12-17T02:35:23.461Z,19.58
2022-12-17T02:38:08.709Z,19.20
2022-12-17T02:40:56.943Z,20.90
2022-12-17T02:43:43.684Z,20.92
2022-12-17T02:46:29.398Z,18.92
2022-12-17T02:49:14.652Z,21.73
2022-12-17T02:52:00.839Z,21.70
2022-12-17T02:54:51.235Z,22.73
2022-12-17T02:57:38.929Z,24.02
2022-12-17T03:00:27.917Z,22.85
2022-12-17T03:03:13.185Z,25.00
2022-12-17T03:05:58.498Z,24.65
2022-12-17T03:08:43.926Z,23.33
2022-12-17T03:11:29.328Z,26.00
2022-12-17T03:14:17.676Z,23.58
2022-12-17T03:17:02.945Z,23.70
2022-12-17T03:19:48.037Z,23.50
2022-12-17T03:22:33.410Z,24.42
2022-12-17T03:25:18.796Z,23.48
2022-12-17T03:28:04.171Z,21.70
2022-12-17T03:30:51.520Z,21.27
2022-12-17T03:33:37.201Z,20.80
2022-12-17T03:36:22.906Z,21.55
2022-12-17T03:39:08.155Z,20.05
2022-12-17T03:41:53.523Z,21.27
2022-12-17T03:44:39.106Z,20.83
2022-12-17T03:47:24.563Z,23.23
2022-12-17T03:50:09.759Z,20.70
2022-12-17T03:52:55.276Z,22.55
2022-12-17T03:55:40.663Z,19.10
2022-12-17T03:58:26.101Z,19.77
2022-12-17T04:01:11.428Z,23.33
2022-12-17T04:03:56.663Z,22.30
2022-12-17T04:06:49.607Z,24.77
2022-12-17T04:09:34.723Z,22.60
2022-12-17T04:12:30.648Z,23.42
2022-12-17T04:15:15.537Z,22.00
2022-12-17T04:18:00.805Z,22.17
2022-12-17T04:20:45.996Z,20.23
2022-12-17T04:23:31.504Z,19.95
2022-12-17T04:26:16.568Z,19.52
2022-12-17T04:29:02.042Z,22.45
2022-12-17T04:31:47.349Z,19.65
2022-12-17T04:34:32.555Z,19.25
2022-12-17T04:37:17.993Z,20.60
2022-12-17T04:40:03.410Z,23.67
2022-12-17T04:42:48.644Z,18.83
2022-12-17T04:45:41.750Z,19.63
2022-12-17T04:51:42.238Z,21.58
2022-12-17T04:57:38.825Z,20.38
2022-12-17T05:03:38.889Z,20.05
2022-12-17T05:06:36.925Z,22.00
2022-12-17T05:15:36.040Z,23.73
2022-12-17T05:21:41.709Z,20.45
2022-12-17T05:24:38.600Z,21.35
2022-12-17T05:27:36.568Z,15.30
2022-12-17T05:33:34.147Z,14.82
2022-12-17T05:36:32.852Z,18.38
2022-12-17T05:45:38.605Z,14.50
2022-12-17T05:48:35.110Z,16.95
2022-12-17T05:51:35.723Z,19.48
2022-12-17T05:54:36.099Z,16.13
2022-12-17T06:00:27.823Z,19.65
2022-12-17T06:03:31.551Z,19.73
2022-12-17T06:08:37.248Z,19.83
2022-12-17T06:11:22.359Z,18.15
2022-12-17T06:14:07.711Z,16.85
2022-12-17T06:16:53.028Z,15.43
2022-12-17T06:19:38.413Z,18.00
2022-12-17T06:22:23.748Z,16.65
2022-12-17T06:25:09.134Z,19.00
2022-12-17T06:27:54.537Z,18.52
2022-12-17T06:30:39.867Z,16.60
2022-12-17T06:33:40.369Z,13.90
2022-12-17T06:36:44.364Z,15.05
2022-12-17T06:39:20.157Z,12.60
2022-12-17T06:42:05.633Z,12.65
2022-12-17T06:44:50.955Z,12.82
2022-12-17T06:47:36.420Z,9.70
2022-12-17T06:50:22.435Z,13.65
2022-12-17T06:53:19.549Z,13.98
2022-12-17T06:56:04.945Z,14.85
2022-12-17T06:58:50.273Z,15.40
2022-12-17T07:01:36.087Z,10.05
2022-12-17T07:04:21.683Z,13.75
2022-12-17T07:07:07.148Z,14.93
2022-12-17T07:09:52.657Z,10.33
2022-12-17T07:12:37.718Z,14.18
2022-12-17T07:15:23.660Z,15.32
2022-12-17T07:18:19.856Z,16.20
2022-12-17T07:24:07.527Z,15.35
2022-12-17T07:27:04.146Z,15.93
2022-12-17T07:29:49.321Z,16.48
2022-12-17T07:32:34.685Z,11.88
2022-12-17T07:35:20.092Z,15.85
2022-12-17T07:38:05.416Z,14.73
2022-12-17T07:40:50.713Z,7.90
2022-12-17T07:43:36.351Z,11.07
2022-12-17T07:46:22.047Z,16.23
2022-12-17T07:49:07.179Z,11.40
2022-12-17T07:51:52.590Z,13.55
2022-12-17T07:54:37.928Z,8.55
2022-12-17T07:57:23.324Z,17.38
2022-12-17T08:00:09.248Z,15.77
2022-12-17T08:05:59.457Z,17.77
2022-12-17T08:29:53.334Z,14.77
2022-12-17T08:35:39.454Z,19.13
2022-12-17T08:38:25.446Z,16.02
2022-12-17T08:41:10.827Z,17.05
2022-12-17T08:43:56.231Z,16.75
2022-12-17T08:46:41.521Z,18.17
2022-12-17T08:49:26.943Z,21.17
2022-12-17T08:52:12.419Z,19.38
2022-12-17T08:54:57.641Z,20.02
2022-12-17T08:57:43.010Z,19.92
2022-12-17T09:00:28.834Z,18.63
2022-12-17T09:03:17.896Z,19.02
2022-12-17T09:06:04.896Z,11.85
2022-12-17T09:08:52.147Z,19.42
2022-12-17T09:11:45.055Z,17.08
2022-12-17T09:17:49.407Z,17.35
2022-12-17T09:20:42.977Z,17.15
2022-12-17T09:35:48.093Z,12.48
2022-12-17T09:38:44.872Z,16.98
2022-12-17T09:41:37.584Z,15.45
2022-12-17T09:44:56.641Z,16.30
2022-12-17T09:48:16.375Z,11.70
2022-12-17T09:51:02.149Z,11.75
2022-12-17T09:54:10.213Z,16.45
2022-12-17T09:56:57.208Z,16.63
2022-12-17T09:59:54.516Z,12.75
2022-12-17T10:02:45.457Z,9.15
2022-12-17T10:05:45.468Z,14.88
2022-12-17T10:08:36.494Z,7.82
2022-12-17T10:11:34.923Z,13.57
2022-12-17T10:17:11.654Z,11.48
2022-12-17T10:20:05.927Z,12.65
2022-12-17T10:23:02.150Z,15.27
2022-12-17T10:25:47.697Z,12.65
2022-12-17T10:28:35.629Z,11.60
2022-12-17T10:31:49.516Z,15.38
2022-12-17T10:34:40.087Z,13.82
2022-12-17T10:37:39.401Z,11.68
2022-12-17T10:40:43.948Z,14.00
2022-12-17T10:43:50.612Z,13.00
2022-12-17T10:46:47.272Z,13.07
2022-12-17T10:49:41.125Z,13.55
2022-12-17T10:52:48.049Z,14.10
2022-12-17T10:55:44.268Z,13.80
2022-12-17T10:58:37.736Z,14.35
2022-12-17T11:01:24.029Z,12.85
2022-12-17T11:04:14.618Z,12.38
2022-12-17T11:07:17.090Z,10.52
2022-12-17T11:10:09.759Z,8.95
2022-12-17T11:13:07.500Z,11.50
2022-12-17T11:16:03.991Z,10.35
2022-12-17T11:18:58.065Z,10.32
2022-12-17T11:22:13.281Z,11.50
2022-12-17T11:25:19.428Z,4.85
2022-12-17T11:28:22.758Z,8.95
2022-12-17T11:31:34.358Z,11.75
2022-12-17T11:34:39.799Z,8.40
2022-12-17T11:37:35.833Z,11.40
2022-12-17T11:40:55.311Z,8.70
2022-12-17T11:44:12.189Z,10.40
2022-12-17T11:47:09.339Z,9.90
2022-12-17T11:50:23.035Z,11.27
2022-12-17T11:53:53.576Z,10.68
2022-12-17T11:56:46.452Z,9.05
2022-12-17T11:59:56.046Z,9.88
2022-12-17T12:03:01.858Z,10.02
2022-12-17T12:06:08.511Z,11.77
2022-12-17T12:08:59.269Z,11.60
2022-12-17T12:11:53.446Z,10.90
2022-12-17T12:14:51.025Z,11.32
2022-12-17T12:17:47.185Z,8.25
2022-12-17T12:20:55.869Z,11.75
2022-12-17T12:24:26.052Z,11.05
2022-12-17T12:27:42.560Z,10.63
2022-12-17T12:30:36.594Z,9.90
2022-12-17T12:33:35.141Z,10.55
2022-12-17T12:36:23.422Z,11.05
2022-12-17T12:39:12.618Z,10.00
2022-12-17T12:42:05.996Z,10.90
2022-12-17T12:45:11.484Z,10.27
2022-12-17T12:48:00.248Z,9.70
2022-12-17T12:51:08.801Z,7.38
2022-12-17T12:53:53.994Z,9.55
2022-12-17T12:56:55.546Z,11.15
2022-12-17T12:59:45.833Z,8.55
2022-12-17T13:02:43.403Z,11.25
2022-12-17T13:05:39.561Z,10.05
2022-12-17T13:08:19.776Z,13.02
2022-12-17T13:10:47.349Z,10.52
2022-12-17T13:13:36.069Z,11.60
2022-12-17T13:16:18.973Z,11.70
2022-12-17T13:18:45.550Z,12.25
2022-12-17T13:21:15.219Z,11.13
2022-12-17T13:23:42.407Z,10.73
2022-12-17T13:26:42.633Z,10.65
2022-12-17T13:29:22.216Z,10.93
2022-12-17T13:32:01.138Z,7.75
2022-12-17T13:35:08.568Z,10.70
2022-12-17T13:37:52.663Z,10.98
2022-12-17T13:40:25.486Z,8.95
2022-12-17T13:42:52.110Z,8.43
2022-12-17T13:45:21.748Z,10.27
2022-12-17T13:47:56.296Z,12.07
2022-12-17T13:50:36.129Z,11.18
2022-12-17T13:53:11.984Z,13.50
2022-12-17T13:55:42.400Z,11.70
2022-12-17T13:58:22.207Z,11.63
2022-12-17T14:00:48.828Z,9.23
2022-12-17T14:03:28.399Z,9.77
2022-12-17T14:06:08.342Z,10.45
2022-12-17T14:08:35.364Z,11.48
2022-12-17T14:11:21.172Z,12.35
2022-12-17T14:13:48.866Z,10.73
2022-12-17T14:16:17.255Z,10.98
2022-12-17T14:18:51.113Z,12.95
2022-12-17T14:21:18.184Z,11.48
2022-12-17T14:23:45.251Z,12.02
2022-12-17T14:26:12.726Z,10.32
2022-12-17T14:28:54.018Z,12.38
2022-12-17T14:31:39.451Z,11.57
2022-12-17T14:34:12.936Z,12.48
2022-12-17T14:36:41.609Z,12.52
2022-12-17T14:39:18.560Z,11.55
2022-12-17T14:44:25.013Z,14.57
2022-12-17T14:47:11.261Z,8.77
2022-12-17T14:49:39.819Z,12.27
2022-12-17T14:52:13.713Z,12.98
2022-12-17T14:54:46.179Z,12.13
2022-12-17T14:57:22.886Z,13.93
2022-12-17T14:59:50.663Z,12.95
2022-12-17T15:02:26.662Z,12.13
2022-12-17T15:04:57.142Z,14.00
2022-12-17T15:07:27.957Z,14.50
2022-12-17T15:09:55.437Z,12.70
2022-12-17T15:12:23.407Z,13.77
2022-12-17T15:14:50.466Z,14.70
2022-12-17T15:17:17.693Z,12.63
2022-12-17T15:19:44.629Z,12.88
2022-12-17T15:25:00.160Z,13.82
2022-12-17T15:27:26.743Z,9.52
2022-12-17T15:29:53.358Z,13.63
2022-12-17T15:32:22.087Z,14.75
2022-12-17T15:34:48.787Z,14.40
2022-12-17T15:37:26.063Z,11.73
2022-12-17T15:39:52.735Z,11.68
2022-12-17T15:42:37.992Z,11.95
2022-12-17T15:45:05.076Z,15.10
2022-12-17T15:47:31.671Z,10.73
2022-12-17T15:49:58.342Z,14.07
2022-12-17T15:52:25.004Z,14.55
2022-12-17T15:54:51.625Z,9.65
2022-12-17T15:57:18.893Z,11.63
2022-12-17T15:59:45.682Z,10.57
2022-12-17T16:02:12.751Z,14.75
2022-12-17T16:04:39.597Z,15.00
2022-12-17T16:07:22.837Z,14.13
2022-12-17T16:09:49.419Z,15.30
2022-12-17T16:12:16.009Z,16.80
2022-12-17T16:14:42.656Z,13.10
2022-12-17T16:17:09.208Z,9.48
2022-12-17T16:19:35.891Z,14.20
2022-12-17T16:22:12.433Z,13.75
2022-12-17T16:24:40.848Z,8.00
2022-12-17T16:27:07.981Z,12.27
2022-12-17T16:29:34.775Z,15.10
2022-12-17T16:32:01.478Z,13.98
2022-12-17T16:34:28.937Z,14.13
2022-12-17T16:39:36.868Z,13.15
2022-12-17T16:42:03.615Z,13.07
2022-12-17T16:44:30.311Z,12.85
2022-12-17T16:46:56.982Z,14.93
2022-12-17T16:49:26.540Z,14.02
2022-12-17T16:54:37.119Z,15.40
2022-12-17T16:57:03.762Z,15.80
2022-12-17T16:59:30.742Z,15.48
2022-12-17T17:01:57.632Z,15.77
2022-12-17T17:04:24.517Z,15.48
2022-12-17T17:07:06.744Z,10.48
2022-12-17T17:09:33.537Z,8.77
2022-12-17T17:12:00.117Z,10.50
2022-12-17T17:14:27.085Z,10.65
2022-12-17T17:16:53.658Z,10.32
2022-12-17T17:19:20.670Z,15.60
2022-12-17T17:22:00.481Z,16.52
2022-12-17T17:24:27.244Z,15.57
2022-12-17T17:26:55.735Z,16.45
2022-12-17T17:29:22.507Z,16.50
2022-12-17T17:34:39.651Z,13.45
2022-12-17T17:37:06.526Z,17.30
2022-12-17T17:39:34.214Z,16.55
2022-12-17T17:42:01.289Z,14.18
2022-12-17T17:44:27.936Z,16.40
2022-12-17T17:46:54.536Z,17.00
2022-12-17T17:49:22.208Z,10.50
2022-12-17T17:52:09.105Z,16.88
2022-12-17T17:54:36.874Z,15.52
2022-12-17T17:57:03.570Z,13.60
2022-12-17T17:59:33.809Z,16.67
2022-12-17T18:02:01.293Z,17.80
2022-12-17T18:04:28.600Z,16.75
2022-12-17T18:09:42.105Z,17.10
2022-12-17T18:15:14.250Z,15.25
2022-12-17T18:17:41.755Z,12.77
2022-12-17T18:20:09.727Z,17.80
2022-12-17T18:22:36.578Z,14.43
2022-12-17T18:25:03.352Z,16.13
2022-12-17T18:27:31.953Z,17.02
2022-12-17T18:29:58.510Z,15.95
2022-12-17T18:32:25.114Z,17.35
2022-12-17T18:34:51.738Z,14.60
2022-12-17T18:37:18.392Z,16.58
2022-12-17T18:39:45.011Z,17.85
2022-12-17T18:47:48.432Z,14.35
2022-12-17T18:50:15.072Z,14.80
2022-12-17T18:52:41.806Z,17.65
2022-12-17T18:55:11.487Z,17.48
2022-12-17T18:57:38.078Z,17.42
2022-12-17T19:00:05.762Z,18.00
2022-12-17T19:02:32.473Z,19.27
2022-12-17T19:04:59.130Z,18.52
2022-12-17T19:07:25.803Z,15.17
2022-12-17T19:09:52.390Z,19.88
2022-12-17T19:12:19.008Z,18.50
2022-12-17T19:14:45.599Z,20.73
2022-12-17T19:17:12.248Z,20.70
2022-12-17T19:19:38.855Z,22.08
2022-12-17T19:22:06.054Z,16.92
2022-12-17T19:24:32.642Z,20.52
2022-12-17T19:26:59.219Z,19.30
2022-12-17T19:29:25.770Z,23.70
2022-12-17T19:31:52.505Z,22.30
2022-12-17T19:34:19.370Z,23.43
2022-12-17T19:36:46.953Z,21.77
2022-12-17T19:41:59.975Z,23.17
2022-12-17T19:44:26.989Z,22.27
2022-12-17T19:46:53.815Z,23.53
2022-12-17T19:49:20.446Z,23.67
2022-12-17T19:51:47.017Z,25.42
2022-12-17T19:54:19.385Z,23.47
2022-12-17T19:56:46.084Z,24.67
2022-12-17T19:59:13.536Z,23.77
2022-12-17T20:01:42.979Z,24.07
2022-12-17T20:04:11.679Z,25.52
2022-12-17T20:06:38.414Z,26.03
2022-12-17T20:09:05.981Z,25.63
2022-12-17T20:11:32.954Z,26.27
2022-12-17T20:14:11.459Z,26.30
2022-12-17T20:16:41.218Z,26.97
2022-12-17T20:19:11.950Z,24.98
2022-12-17T20:26:49.736Z,23.47
2022-12-17T20:29:16.820Z,20.93
2022-12-17T20:31:49.847Z,22.07
2022-12-17T20:34:18.593Z,21.40
2022-12-17T20:36:45.226Z,21.47
2022-12-17T20:39:12.278Z,21.10
2022-12-17T20:41:40.121Z,19.20
2022-12-17T20:44:12.503Z,19.93
2022-12-17T20:46:41.131Z,18.47
2022-12-17T20:49:08.457Z,17.97
2022-12-17T20:51:35.175Z,17.50
2022-12-17T20:54:04.509Z,20.10
2022-12-17T20:56:35.221Z,19.00
2022-12-17T21:01:31.490Z,18.20
2022-12-17T21:03:58.787Z,16.33
2022-12-17T21:06:28.752Z,18.43
2022-12-17T21:09:06.458Z,17.20
2022-12-17T21:11:34.427Z,19.10
2022-12-17T21:14:13.244Z,20.13
2022-12-17T21:16:40.989Z,21.33
2022-12-17T21:19:08.820Z,19.50
2022-12-17T21:21:37.433Z,19.13
2022-12-17T21:24:04.800Z,17.03
2022-12-17T21:26:33.961Z,19.80
2022-12-17T21:29:02.302Z,21.33
2022-12-17T21:31:32.317Z,21.83
2022-12-17T21:34:01.260Z,16.77
2022-12-17T21:36:29.917Z,20.70
2022-12-17T21:39:09.106Z,18.03
2022-12-17T21:41:38.606Z,19.00
2022-12-17T21:44:07.756Z,18.83
2022-12-17T21:46:34.622Z,18.67
2022-12-17T21:49:02.590Z,20.53
2022-12-17T21:51:30.419Z,18.57
2022-12-17T21:54:01.525Z,19.63
2022-12-17T21:56:28.905Z,17.23
2022-12-17T21:59:00.205Z,20.33
2022-12-17T22:01:29.878Z,18.47
2022-12-17T22:03:57.885Z,20.55
2022-12-17T22:06:28.576Z,20.50
2022-12-17T22:09:07.708Z,27.37
2022-12-17T22:11:47.470Z,22.17
2022-12-17T22:14:20.676Z,22.07
2022-12-17T22:16:49.479Z,22.00
2022-12-17T22:19:22.792Z,19.27
2022-12-17T22:21:50.424Z,19.50
2022-12-17T22:24:19.364Z,18.83
2022-12-17T22:26:55.221Z,15.83
2022-12-17T22:29:52.345Z,16.40
2022-12-17T22:36:36.384Z,16.43
2022-12-17T22:41:58.501Z,13.63
2022-12-17T22:44:30.218Z,14.67
2022-12-17T22:44:41.944Z,8.97
2022-12-17T22:46:25.635Z,10.73
2022-12-17T22:48:52.280Z,15.82
2022-12-17T22:51:31.881Z,11.50
2022-12-17T22:54:08.573Z,11.70
2022-12-17T22:59:19.080Z,14.77
2022-12-17T23:01:46.088Z,14.65
2022-12-17T23:04:14.250Z,14.32
2022-12-17T23:06:42.367Z,16.30
2022-12-17T23:09:09.005Z,17.37
2022-12-17T23:11:48.562Z,16.97
2022-12-17T23:14:15.328Z,17.20
2022-12-17T23:16:43.284Z,18.00
2022-12-17T23:19:10.269Z,19.77
2022-12-17T23:21:37.545Z,19.73
2022-12-17T23:24:04.592Z,20.17
2022-12-17T23:26:47.436Z,17.73
2022-12-17T23:29:19.384Z,19.13
2022-12-17T23:31:47.087Z,17.83
2022-12-17T23:34:13.762Z,19.07
2022-12-17T23:36:40.381Z,18.30
2022-12-17T23:39:07.110Z,20.37
2022-12-17T23:41:53.609Z,20.90
2022-12-17T23:44:20.259Z,18.27
2022-12-17T23:46:47.494Z,18.03
2022-12-17T23:49:17.063Z,17.13
2022-12-17T23:51:43.645Z,18.30
2022-12-17T23:54:10.537Z,20.83
2022-12-17T23:59:07.526Z,17.23
